Time;durP1;ratioP1;P1;durP2;ratioP2;P2;SDS_P1;SDS_P2;PMS_P1;PMS_P2;Temp;Humidity;BMP_temperature;BMP_pressure;BME280_temperature;BME280_humidity;BME280_pressure;Samples;Min_cycle;Max_cycle;Signal;HPM_P1;HPM_P2
2022/08/21 00:00:39;;;;;;;2.38;1.00;;;23.90;59.50;;;;;;4461523;32;20450;-73
2022/08/21 00:03:07;;;;;;;2.75;1.05;;;23.90;59.50;;;;;;4461433;32;20082;-73
2022/08/21 00:05:37;;;;;;;1.92;1.02;;;23.80;59.40;;;;;;4461489;32;20167;-72
2022/08/21 00:08:03;;;;;;;2.25;1.05;;;23.80;59.40;;;;;;4461540;32;20617;-73
2022/08/21 00:10:29;;;;;;;2.67;0.80;;;23.80;59.40;;;;;;4461271;32;20123;-72
2022/08/21 00:12:55;;;;;;;1.85;0.90;;;23.90;59.50;;;;;;4461186;32;20423;-73
2022/08/21 00:15:26;;;;;;;2.05;0.80;;;23.80;59.40;;;;;;4461391;32;20070;-73
2022/08/21 00:17:53;;;;;;;2.00;0.88;;;23.80;59.40;;;;;;4447401;32;20095;-72
2022/08/21 00:20:19;;;;;;;3.22;1.17;;;23.80;59.40;;;;;;4461291;32;20256;-72
2022/08/21 00:22:46;;;;;;;1.85;1.00;;;23.80;59.40;;;;;;4461515;32;20094;-73
2022/08/21 00:25:13;;;;;;;2.05;0.82;;;23.80;59.40;;;;;;4461268;32;20449;-72
2022/08/21 00:27:42;;;;;;;1.88;0.88;;;23.80;59.50;;;;;;4461239;32;20070;-72
2022/08/21 00:30:10;;;;;;;2.92;1.13;;;23.80;59.40;;;;;;4461235;32;20074;-73
2022/08/21 00:32:38;;;;;;;1.98;0.90;;;23.80;59.40;;;;;;4461043;32;20224;-73
2022/08/21 00:35:11;;;;;;;1.50;1.02;;;23.80;59.50;;;;;;4460927;32;20258;-73
2022/08/21 00:37:38;;;;;;;1.63;0.90;;;23.80;59.40;;;;;;4460929;32;20127;-73
2022/08/21 00:40:07;;;;;;;1.65;1.08;;;23.80;59.40;;;;;;4461267;32;20109;-72
2022/08/21 00:42:32;;;;;;;2.40;1.05;;;23.80;59.40;;;;;;4460724;32;20080;-73
2022/08/21 00:44:58;;;;;;;2.95;0.85;;;23.80;59.40;;;;;;4460918;32;20101;-72
2022/08/21 00:47:24;;;;;;;2.13;0.77;;;23.80;59.40;;;;;;4460880;32;20187;-72
2022/08/21 00:49:51;;;;;;;1.35;0.77;;;23.80;59.50;;;;;;4460870;32;20465;-73
2022/08/21 00:52:26;;;;;;;3.65;1.05;;;23.80;59.50;;;;;;4461112;32;20139;-73
2022/08/21 00:54:55;;;;;;;1.95;1.10;;;23.70;59.40;;;;;;4460665;32;20617;-73
2022/08/21 00:57:27;;;;;;;1.60;1.00;;;23.80;59.50;;;;;;4461019;32;20136;-72
2022/08/21 00:59:58;;;;;;;2.03;1.00;;;23.80;59.50;;;;;;4460526;32;20070;-73
2022/08/21 01:02:24;;;;;;;1.33;0.73;;;23.70;59.50;;;;;;4460643;32;20167;-73
2022/08/21 01:04:50;;;;;;;3.83;0.90;;;23.70;59.50;;;;;;4460803;32;20093;-72
2022/08/21 01:07:16;;;;;;;1.60;0.80;;;23.80;59.60;;;;;;4460646;32;20163;-72
2022/08/21 01:09:42;;;;;;;1.70;0.90;;;23.70;59.50;;;;;;4460964;32;20478;-72
2022/08/21 01:12:09;;;;;;;1.65;0.73;;;23.70;59.50;;;;;;4460851;32;20132;-72
2022/08/21 01:14:35;;;;;;;3.08;1.05;;;23.70;59.50;;;;;;4460606;32;20078;-72
2022/08/21 01:17:03;;;;;;;2.60;0.98;;;23.70;59.50;;;;;;4460581;32;20070;-72
2022/08/21 01:19:29;;;;;;;1.60;0.93;;;23.70;59.60;;;;;;4446267;32;20136;-73
2022/08/21 01:21:55;;;;;;;2.13;0.95;;;23.70;59.50;;;;;;4460570;32;20070;-73
2022/08/21 01:24:21;;;;;;;2.95;0.90;;;23.70;59.50;;;;;;4460655;32;20215;-73
2022/08/21 01:26:48;;;;;;;1.40;0.95;;;23.70;59.50;;;;;;4460299;32;20081;-72
2022/08/21 01:30:22;;;;;;;1.70;0.93;;;23.70;59.50;;;;;;4460404;32;20070;-72
2022/08/21 01:32:48;;;;;;;1.98;0.82;;;23.70;59.50;;;;;;4390707;32;20118;-72
2022/08/21 01:35:16;;;;;;;2.03;1.00;;;23.70;59.60;;;;;;4396998;32;20071;-72
2022/08/21 01:37:42;;;;;;;1.83;0.93;;;23.60;59.50;;;;;;4427494;32;20167;-73
2022/08/21 01:40:08;;;;;;;1.98;1.08;;;23.70;59.60;;;;;;4460434;32;20085;-72
2022/08/21 01:42:35;;;;;;;3.17;1.05;;;23.60;59.60;;;;;;4460427;32;20096;-73
2022/08/21 01:45:01;;;;;;;2.65;0.95;;;23.70;59.60;;;;;;4460155;32;20082;-73
2022/08/21 01:47:27;;;;;;;1.23;0.70;;;23.60;59.60;;;;;;4460352;32;20136;-72
2022/08/21 01:49:53;;;;;;;1.30;0.82;;;23.70;59.60;;;;;;4460474;32;20073;-73
2022/08/21 01:52:19;;;;;;;1.75;1.00;;;23.60;59.60;;;;;;4460380;32;20546;-72
2022/08/21 01:54:45;;;;;;;1.83;0.88;;;23.60;59.60;;;;;;4460395;32;20077;-72
2022/08/21 01:57:13;;;;;;;2.47;0.98;;;23.60;59.60;;;;;;4460318;32;20423;-72
2022/08/21 01:59:39;;;;;;;1.58;0.90;;;23.60;59.60;;;;;;4460609;32;20194;-72
2022/08/21 02:02:05;;;;;;;1.52;0.70;;;23.60;60.50;;;;;;4460540;32;20069;-73
2022/08/21 02:04:32;;;;;;;1.55;0.80;;;23.60;59.60;;;;;;4460319;32;20093;-72
2022/08/21 02:06:59;;;;;;;1.08;0.82;;;23.60;59.70;;;;;;4460000;32;20094;-72
2022/08/21 02:09:25;;;;;;;2.10;0.90;;;23.60;59.60;;;;;;4460041;32;20143;-73
2022/08/21 02:11:52;;;;;;;1.65;0.80;;;23.60;59.70;;;;;;4461243;32;20208;-73
2022/08/21 02:14:18;;;;;;;1.48;0.77;;;23.60;59.70;;;;;;4463178;32;20127;-73
2022/08/21 02:16:44;;;;;;;2.10;0.90;;;23.60;59.70;;;;;;4463158;32;20171;-72
2022/08/21 02:19:13;;;;;;;1.80;0.98;;;23.60;59.70;;;;;;4463090;32;20531;-72
2022/08/21 02:21:39;;;;;;;1.08;0.75;;;23.60;59.60;;;;;;4462837;32;20114;-72
2022/08/21 02:24:06;;;;;;;1.55;0.80;;;23.60;59.60;;;;;;4449238;32;20094;-73
2022/08/21 02:26:32;;;;;;;1.20;0.70;;;23.60;59.70;;;;;;4462999;32;20081;-73
2022/08/21 02:28:58;;;;;;;2.55;0.70;;;23.60;59.70;;;;;;4462910;32;20129;-72
2022/08/21 02:31:24;;;;;;;1.05;0.63;;;23.60;59.70;;;;;;4463005;32;20117;-73
2022/08/21 02:33:51;;;;;;;1.23;0.82;;;23.60;59.80;;;;;;4462652;32;20105;-73
2022/08/21 02:36:17;;;;;;;2.28;1.00;;;23.60;59.70;;;;;;4462914;32;20070;-73
2022/08/21 02:38:43;;;;;;;2.30;0.80;;;23.50;59.70;;;;;;4462929;32;20208;-73
2022/08/21 02:41:13;;;;;;;1.95;0.93;;;23.60;59.80;;;;;;4462794;32;20108;-73
2022/08/21 02:43:39;;;;;;;1.17;0.80;;;23.50;59.70;;;;;;4462946;32;20207;-72
2022/08/21 02:46:07;;;;;;;1.77;0.93;;;23.50;59.80;;;;;;4462697;32;20387;-72
2022/08/21 02:48:33;;;;;;;1.27;0.70;;;23.50;59.80;;;;;;4462601;32;20499;-72
2022/08/21 02:51:05;;;;;;;1.92;0.95;;;23.50;59.80;;;;;;4462655;32;20082;-72
2022/08/21 02:53:32;;;;;;;3.53;0.80;;;23.50;59.80;;;;;;4462652;32;20128;-72
2022/08/21 02:56:01;;;;;;;1.17;0.80;;;23.50;59.80;;;;;;4462811;32;20163;-73
2022/08/21 02:58:34;;;;;;;1.38;0.80;;;23.50;59.80;;;;;;4462930;32;20359;-72
2022/08/21 03:01:00;;;;;;;2.13;0.80;;;23.50;59.80;;;;;;4462637;32;20454;-73
2022/08/21 03:03:28;;;;;;;2.45;0.90;;;23.50;59.80;;;;;;4462154;32;20144;-73
2022/08/21 03:05:54;;;;;;;1.25;0.80;;;23.50;59.80;;;;;;4462729;32;20078;-72
2022/08/21 03:08:21;;;;;;;1.48;0.93;;;23.50;59.80;;;;;;4462546;32;20129;-72
2022/08/21 03:10:50;;;;;;;1.73;0.63;;;23.50;59.80;;;;;;4462531;32;20096;-72
2022/08/21 03:13:17;;;;;;;1.40;0.80;;;23.50;59.80;;;;;;4462306;32;20078;-72
2022/08/21 03:15:43;;;;;;;0.80;0.70;;;23.40;59.70;;;;;;4462268;32;20078;-72
2022/08/21 03:18:11;;;;;;;1.98;0.90;;;23.50;59.90;;;;;;4461918;32;20554;-73
2022/08/21 03:20:37;;;;;;;1.60;0.70;;;23.50;59.80;;;;;;4462007;32;20061;-72
2022/08/21 03:23:04;;;;;;;1.00;0.70;;;23.40;59.80;;;;;;4461686;32;20499;-72
2022/08/21 03:25:33;;;;;;;1.63;0.88;;;23.40;59.80;;;;;;4462236;32;20085;-72
2022/08/21 03:28:01;;;;;;;1.10;0.70;;;23.40;59.80;;;;;;4447757;32;20077;-72
2022/08/21 03:30:27;;;;;;;1.38;0.80;;;23.40;59.80;;;;;;4462261;32;20088;-72
2022/08/21 03:32:53;;;;;;;1.63;0.80;;;23.40;59.80;;;;;;4462166;32;20562;-72
2022/08/21 03:35:20;;;;;;;2.05;0.60;;;23.40;59.80;;;;;;4461806;32;20509;-72
2022/08/21 03:37:46;;;;;;;1.20;0.70;;;23.40;59.80;;;;;;4462353;32;20415;-72
2022/08/21 03:40:15;;;;;;;1.15;0.60;;;23.40;59.80;;;;;;4461891;32;20101;-72
2022/08/21 03:42:41;;;;;;;1.05;0.80;;;23.40;59.80;;;;;;4461862;32;20211;-72
2022/08/21 03:45:08;;;;;;;2.67;0.65;;;23.40;59.80;;;;;;4461840;32;20083;-72
2022/08/21 03:47:35;;;;;;;1.42;0.82;;;23.40;59.90;;;;;;4461729;32;20220;-72
2022/08/21 03:50:03;;;;;;;1.20;0.70;;;23.40;59.80;;;;;;4461477;32;20096;-73
2022/08/21 03:52:29;;;;;;;1.15;0.70;;;23.40;59.90;;;;;;4461820;32;20098;-73
2022/08/21 03:54:54;;;;;;;1.38;0.70;;;23.40;59.80;;;;;;4461698;32;20471;-72
2022/08/21 03:57:21;;;;;;;1.20;0.73;;;23.30;59.80;;;;;;4461645;32;20207;-72
2022/08/21 03:59:48;;;;;;;2.05;0.85;;;23.30;59.80;;;;;;4461308;32;20093;-72
2022/08/21 04:02:18;;;;;;;1.65;0.80;;;23.40;59.80;;;;;;4461757;32;20097;-73
2022/08/21 04:04:44;;;;;;;1.58;0.63;;;23.30;59.80;;;;;;4461419;32;20073;-72
2022/08/21 04:07:10;;;;;;;1.48;0.70;;;23.40;59.90;;;;;;4461746;32;20505;-72
2022/08/21 04:09:36;;;;;;;0.82;0.60;;;23.30;59.80;;;;;;4461455;32;20086;-72
2022/08/21 04:12:03;;;;;;;1.35;0.82;;;23.30;59.80;;;;;;4461344;32;20228;-72
2022/08/21 04:14:30;;;;;;;1.42;0.60;;;23.30;59.80;;;;;;4461093;32;20121;-73
2022/08/21 04:16:55;;;;;;;1.30;0.70;;;23.30;59.80;;;;;;4447241;32;20514;-72
2022/08/21 04:19:21;;;;;;;1.80;0.80;;;23.30;59.80;;;;;;4461316;32;20092;-72
2022/08/21 04:21:47;;;;;;;1.58;0.95;;;23.30;59.80;;;;;;4461551;32;20402;-72
2022/08/21 04:24:13;;;;;;;1.50;0.70;;;23.30;59.80;;;;;;4447035;32;20225;-72
2022/08/21 04:26:39;;;;;;;4.18;0.82;;;23.30;59.70;;;;;;4461429;32;20128;-72
2022/08/21 04:29:06;;;;;;;1.67;0.70;;;23.30;59.80;;;;;;4461398;32;20427;-72
2022/08/21 04:31:38;;;;;;;1.88;0.93;;;23.30;59.80;;;;;;4461313;32;20097;-72
2022/08/21 04:34:05;;;;;;;0.88;0.57;;;23.30;59.80;;;;;;4461015;32;20070;-72
2022/08/21 04:36:34;;;;;;;1.40;0.63;;;23.30;59.80;;;;;;4460845;32;20101;-73
2022/08/21 04:38:59;;;;;;;1.20;0.80;;;23.30;59.80;;;;;;4461148;32;20193;-72
2022/08/21 04:41:25;;;;;;;1.05;0.68;;;23.30;59.70;;;;;;4461017;32;20243;-73
2022/08/21 04:43:51;;;;;;;1.45;0.77;;;23.30;59.80;;;;;;4461285;32;20219;-72
2022/08/21 04:46:18;;;;;;;0.82;0.52;;;23.30;59.80;;;;;;4460962;32;20073;-72
2022/08/21 04:48:44;;;;;;;0.93;0.70;;;23.30;59.80;;;;;;4460812;32;20529;-72
2022/08/21 04:51:14;;;;;;;2.05;0.70;;;23.30;59.80;;;;;;4461152;32;20066;-73
2022/08/21 04:53:48;;;;;;;1.63;0.65;;;23.20;59.70;;;;;;4460758;32;20078;-72
2022/08/21 04:56:23;;;;;;;1.15;0.65;;;23.30;59.80;;;;;;4461240;32;20117;-72
2022/08/21 04:58:52;;;;;;;2.15;0.80;;;23.20;59.70;;;;;;4460902;32;20129;-72
2022/08/21 05:01:23;;;;;;;1.88;0.60;;;23.30;59.70;;;;;;4460960;32;20118;-72
2022/08/21 05:03:52;;;;;;;1.33;0.52;;;23.20;60.60;;;;;;4460757;32;20462;-72
2022/08/21 05:06:19;;;;;;;1.13;0.60;;;23.30;59.80;;;;;;4460739;32;20507;-72
2022/08/21 05:08:48;;;;;;;1.27;0.70;;;23.20;59.80;;;;;;4460367;32;20078;-72
2022/08/21 05:11:15;;;;;;;1.67;0.70;;;23.20;59.80;;;;;;4460774;32;20490;-72
2022/08/21 05:13:41;;;;;;;0.70;0.52;;;23.20;59.70;;;;;;4460646;32;20070;-72
2022/08/21 05:16:08;;;;;;;0.57;0.40;;;23.20;59.70;;;;;;4460365;32;20196;-72
2022/08/21 05:18:33;;;;;;;0.63;0.50;;;23.20;59.80;;;;;;4460863;32;20090;-73
2022/08/21 05:20:59;;;;;;;2.38;0.80;;;23.20;59.70;;;;;;4460551;32;20514;-72
2022/08/21 05:23:25;;;;;;;0.68;0.50;;;23.20;59.80;;;;;;4460561;32;20066;-72
2022/08/21 05:25:52;;;;;;;1.83;0.90;;;23.20;59.70;;;;;;4460546;32;20484;-72
2022/08/21 05:28:18;;;;;;;1.73;0.60;;;23.20;59.80;;;;;;4460584;32;20085;-72
2022/08/21 05:30:44;;;;;;;1.15;0.60;;;23.20;59.80;;;;;;4460261;32;20096;-72
2022/08/21 05:33:10;;;;;;;1.30;0.68;;;23.20;59.70;;;;;;4460399;32;20088;-72
2022/08/21 05:35:38;;;;;;;1.27;0.65;;;23.20;59.80;;;;;;4460224;32;20074;-73
2022/08/21 05:38:05;;;;;;;1.05;0.65;;;23.20;59.80;;;;;;4460607;32;20464;-72
2022/08/21 05:40:32;;;;;;;1.92;0.80;;;23.20;59.80;;;;;;4460767;32;20077;-72
2022/08/21 05:42:58;;;;;;;1.00;0.73;;;23.20;59.80;;;;;;4460502;32;20093;-73
2022/08/21 05:45:27;;;;;;;1.25;0.70;;;23.20;59.90;;;;;;4460545;32;20223;-72
2022/08/21 05:47:53;;;;;;;0.80;0.50;;;23.20;59.80;;;;;;4462504;32;20088;-72
2022/08/21 05:50:19;;;;;;;0.88;0.68;;;23.20;59.90;;;;;;4463525;32;20113;-72
2022/08/21 05:52:45;;;;;;;0.70;0.52;;;23.20;59.80;;;;;;4463800;32;20527;-73
2022/08/21 05:55:11;;;;;;;0.82;0.40;;;23.20;60.70;;;;;;4463448;32;20066;-72
2022/08/21 05:57:36;;;;;;;1.20;0.60;;;23.20;60.70;;;;;;4449473;32;20223;-72
2022/08/21 06:00:04;;;;;;;1.27;0.80;;;23.10;59.80;;;;;;4463581;32;20383;-72
2022/08/21 06:02:31;;;;;;;1.05;0.70;;;23.20;59.90;;;;;;4449668;32;20109;-73
2022/08/21 06:04:57;;;;;;;1.15;0.70;;;23.20;59.90;;;;;;4463325;32;20097;-72
2022/08/21 06:07:22;;;;;;;1.00;0.80;;;23.20;59.90;;;;;;4463563;32;20517;-72
2022/08/21 06:09:48;;;;;;;1.20;0.70;;;23.20;59.80;;;;;;4462905;32;20070;-72
2022/08/21 06:12:14;;;;;;;0.88;0.70;;;23.20;59.80;;;;;;4463893;32;20121;-72
2022/08/21 06:14:41;;;;;;;2.28;0.80;;;23.20;59.70;;;;;;4463176;32;20406;-72
2022/08/21 06:17:11;;;;;;;2.83;0.70;;;23.20;59.80;;;;;;4463133;32;20069;-73
2022/08/21 06:19:38;;;;;;;1.27;0.70;;;23.30;60.00;;;;;;4463277;32;20406;-72
2022/08/21 06:22:04;;;;;;;1.30;0.55;;;23.20;59.90;;;;;;4462846;32;20093;-73
2022/08/21 06:24:31;;;;;;;2.50;0.70;;;23.30;59.80;;;;;;4463002;32;20090;-72
2022/08/21 06:26:56;;;;;;;1.20;0.60;;;23.30;59.90;;;;;;4463263;32;20369;-71
2022/08/21 06:29:23;;;;;;;1.42;0.80;;;23.30;59.90;;;;;;4462878;32;20140;-72
2022/08/21 06:31:51;;;;;;;1.30;0.77;;;23.30;59.90;;;;;;4448950;32;20109;-72
2022/08/21 06:34:17;;;;;;;0.80;0.50;;;23.30;60.70;;;;;;4462815;32;20093;-72
2022/08/21 06:36:44;;;;;;;0.85;0.65;;;23.30;59.90;;;;;;4462679;32;20077;-72
2022/08/21 06:39:10;;;;;;;1.55;0.70;;;23.30;60.00;;;;;;4462846;32;20133;-72
2022/08/21 06:41:36;;;;;;;1.40;0.85;;;23.30;60.00;;;;;;4462805;32;20669;-75
2022/08/21 06:44:02;;;;;;;3.72;0.80;;;23.30;59.90;;;;;;4462723;32;20224;-73
2022/08/21 06:46:29;;;;;;;5.50;1.40;;;23.30;60.10;;;;;;4462414;32;20225;-73
2022/08/21 06:48:56;;;;;;;7.05;2.28;;;23.30;60.30;;;;;;4462543;32;20139;-73
2022/08/21 06:51:23;;;;;;;5.35;2.42;;;23.30;60.50;;;;;;4462609;32;20074;-73
2022/08/21 06:53:49;;;;;;;9.13;2.47;;;23.30;60.70;;;;;;4448273;32;20289;-74
2022/08/21 06:56:15;;;;;;;6.70;2.55;;;23.40;60.80;;;;;;4462245;32;20091;-74
2022/08/21 06:58:41;;;;;;;8.75;2.83;;;23.30;61.00;;;;;;4461637;32;20062;-74
2022/08/21 07:01:07;;;;;;;7.47;2.53;;;23.30;61.20;;;;;;4462429;32;20074;-74
2022/08/21 07:03:37;;;;;;;9.50;2.83;;;23.30;61.20;;;;;;4462321;32;20092;-74
2022/08/21 07:06:04;;;;;;;7.95;2.30;;;23.30;61.50;;;;;;4462332;32;20073;-73
2022/08/21 07:08:30;;;;;;;11.20;3.13;;;23.30;61.60;;;;;;4462239;32;20400;-74
2022/08/21 07:10:58;;;;;;;8.35;2.55;;;23.30;61.90;;;;;;4462258;32;20475;-74
2022/08/21 07:13:24;;;;;;;15.20;2.80;;;23.30;62.00;;;;;;4461967;32;20086;-74
2022/08/21 07:15:50;;;;;;;8.35;2.53;;;23.30;62.10;;;;;;4462312;32;20592;-74
2022/08/21 07:18:16;;;;;;;9.73;2.72;;;23.30;62.20;;;;;;4462022;32;20066;-74
2022/08/21 07:20:43;;;;;;;9.68;2.63;;;23.30;62.30;;;;;;4462153;32;20088;-74
2022/08/21 07:23:26;;;;;;;13.68;3.20;;;23.30;62.30;;;;;;4462460;32;20109;-73
2022/08/21 07:25:52;;;;;;;11.40;2.95;;;23.30;62.20;;;;;;4462215;32;20078;-73
2022/08/21 07:28:18;;;;;;;10.20;2.58;;;23.30;62.30;;;;;;4462177;32;20084;-74
2022/08/21 07:30:45;;;;;;;8.57;3.17;;;23.30;62.30;;;;;;4462241;32;20092;-74
2022/08/21 07:33:11;;;;;;;9.18;2.42;;;23.30;62.50;;;;;;4462245;32;20074;-74
2022/08/21 07:35:37;;;;;;;8.30;2.17;;;23.30;62.60;;;;;;4461426;32;20544;-73
2022/08/21 07:38:03;;;;;;;8.18;2.60;;;23.40;62.70;;;;;;4461928;32;20094;-74
2022/08/21 07:40:29;;;;;;;7.88;2.58;;;23.30;62.70;;;;;;4462089;32;20509;-74
2022/08/21 07:42:55;;;;;;;8.82;2.42;;;23.40;62.60;;;;;;4461791;32;20275;-74
2022/08/21 07:45:26;;;;;;;11.10;3.20;;;23.40;62.60;;;;;;4461772;32;20482;-73
2022/08/21 07:47:52;;;;;;;9.77;2.67;;;23.40;62.50;;;;;;4461746;32;20211;-73
2022/08/21 07:50:18;;;;;;;15.70;3.10;;;23.40;62.30;;;;;;4461446;32;20078;-72
2022/08/21 07:52:45;;;;;;;6.30;2.25;;;23.40;62.30;;;;;;4461635;32;20080;-73
2022/08/21 07:55:14;;;;;;;10.98;2.05;;;23.40;62.10;;;;;;4461387;32;20085;-73
2022/08/21 07:57:40;;;;;;;11.00;2.40;;;23.50;62.20;;;;;;4461547;32;20481;-73
2022/08/21 08:00:09;;;;;;;10.07;2.28;;;23.50;62.30;;;;;;4461239;32;20093;-72
2022/08/21 08:02:35;;;;;;;6.97;1.88;;;23.60;62.40;;;;;;4447499;32;20082;-74
2022/08/21 08:05:04;;;;;;;6.03;1.92;;;23.60;62.30;;;;;;4461576;32;20088;-74
2022/08/21 08:07:30;;;;;;;9.85;2.00;;;23.60;62.20;;;;;;4461448;32;20614;-72
2022/08/21 08:09:56;;;;;;;8.95;1.75;;;23.60;62.10;;;;;;4446841;32;20078;-72
2022/08/21 08:12:22;;;;;;;6.88;2.25;;;23.60;62.10;;;;;;4461637;32;20123;-72
2022/08/21 08:14:48;;;;;;;7.88;1.80;;;23.70;62.00;;;;;;4461401;32;20070;-73
2022/08/21 08:17:14;;;;;;;9.38;2.28;;;23.70;62.10;;;;;;4461287;32;20084;-73
2022/08/21 08:19:40;;;;;;;9.15;1.63;;;23.70;61.90;;;;;;4461294;32;20451;-72
2022/08/21 08:22:19;;;;;;;7.22;1.83;;;23.80;61.90;;;;;;4461254;32;20074;-73
2022/08/21 08:24:45;;;;;;;10.60;2.38;;;23.80;61.70;;;;;;4461065;32;20219;-73
2022/08/21 08:27:11;;;;;;;10.43;2.45;;;23.80;61.60;;;;;;4446905;32;20062;-74
2022/08/21 08:29:37;;;;;;;11.85;2.40;;;24.00;61.50;;;;;;4447176;32;20077;-73
2022/08/21 08:32:06;;;;;;;9.32;2.03;;;24.00;61.40;;;;;;4447189;32;20077;-73
2022/08/21 08:34:33;;;;;;;8.98;2.10;;;24.00;61.30;;;;;;4460743;32;20081;-73
2022/08/21 08:36:59;;;;;;;7.60;2.15;;;24.00;61.20;;;;;;4460794;32;20525;-73
2022/08/21 08:39:26;;;;;;;9.38;1.80;;;24.10;61.20;;;;;;4447037;32;20084;-74
2022/08/21 08:42:14;;;;;;;12.02;2.40;;;24.10;61.20;;;;;;4447108;32;20089;-73
2022/08/21 08:44:47;;;;;;;10.82;2.47;;;24.10;61.10;;;;;;4460891;32;20448;-72
2022/08/21 08:47:16;;;;;;;11.45;2.33;;;24.10;61.10;;;;;;4461591;32;20097;-73
2022/08/21 08:50:07;;;;;;;10.40;2.30;;;24.10;61.10;;;;;;4460606;32;20426;-73
2022/08/21 08:52:36;;;;;;;8.18;2.70;;;24.10;61.10;;;;;;4461032;32;20089;-73
2022/08/21 08:55:13;;;;;;;10.57;2.45;;;24.20;61.10;;;;;;4460813;32;20092;-73
2022/08/21 08:57:44;;;;;;;8.68;1.85;;;24.20;61.30;;;;;;4461147;32;20101;-72
2022/08/21 09:00:13;;;;;;;10.23;2.28;;;24.20;61.10;;;;;;4460877;32;20147;-73
2022/08/21 09:02:41;;;;;;;10.68;2.47;;;24.20;61.20;;;;;;4460876;32;20073;-72
2022/08/21 09:05:20;;;;;;;12.15;2.30;;;24.30;61.40;;;;;;4460731;32;20085;-73
2022/08/21 09:08:08;;;;;;;11.00;2.60;;;24.30;61.30;;;;;;4446452;32;20215;-76
2022/08/21 09:10:45;;;;;;;7.68;1.88;;;24.20;61.20;;;;;;4460745;32;20073;-71
2022/08/21 09:13:55;;;;;;;9.38;2.03;;;24.30;61.30;;;;;;4460728;32;20074;-72
2022/08/21 09:16:54;;;;;;;9.40;2.60;;;24.30;61.40;;;;;;4460712;32;20086;-71
2022/08/21 09:19:35;;;;;;;10.48;2.40;;;24.30;61.40;;;;;;4460675;32;20105;-71
2022/08/21 09:22:02;;;;;;;11.65;2.30;;;24.40;61.20;;;;;;4460274;32;20158;-72
2022/08/21 09:24:46;;;;;;;13.00;2.40;;;24.40;61.10;;;;;;4446283;32;20090;-72
2022/08/21 09:27:15;;;;;;;8.32;2.60;;;24.40;61.00;;;;;;4460804;32;20425;-72
2022/08/21 09:29:44;;;;;;;9.82;2.20;;;24.40;60.90;;;;;;4460381;32;20082;-71
2022/08/21 09:32:32;;;;;;;8.57;2.30;;;24.40;60.80;;;;;;4460446;32;20175;-72
2022/08/21 09:35:15;;;;;;;11.05;2.30;;;24.40;60.70;;;;;;4460649;32;20090;-74
2022/08/21 09:37:52;;;;;;;9.82;2.35;;;24.40;60.80;;;;;;4460354;32;20104;-73
2022/08/21 09:40:32;;;;;;;11.68;2.10;;;24.40;60.60;;;;;;4460612;32;20093;-72
2022/08/21 09:43:07;;;;;;;10.68;2.42;;;24.40;60.60;;;;;;4460191;32;20070;-73
2022/08/21 09:45:35;;;;;;;14.02;2.17;;;24.40;60.70;;;;;;4446385;32;20228;-73
2022/08/21 09:48:21;;;;;;;10.60;2.30;;;24.40;60.80;;;;;;4460552;32;20132;-73
2022/08/21 09:50:48;;;;;;;8.35;1.95;;;24.40;60.80;;;;;;4446349;32;20481;-73
2022/08/21 09:53:27;;;;;;;8.40;2.10;;;24.30;60.90;;;;;;4460186;32;20074;-73
2022/08/21 09:58:42;;;;;;;7.85;2.00;;;24.30;61.10;;;;;;4460490;32;20085;-73
2022/08/21 10:01:24;;;;;;;8.18;2.25;;;24.30;61.20;;;;;;4459922;32;20070;-73
2022/08/21 10:04:07;;;;;;;10.70;2.63;;;24.30;61.30;;;;;;4459920;32;20113;-71
2022/08/21 10:06:34;;;;;;;;;;;24.30;61.40;;;;;;4461017;32;20085;-72
2022/08/21 10:09:10;;;;;;;7.65;2.40;;;24.20;61.30;;;;;;4460097;32;20017;-72
2022/08/21 10:11:37;;;;;;;8.05;2.08;;;24.20;61.50;;;;;;4459916;32;20384;-72
2022/08/21 10:14:16;;;;;;;8.82;1.98;;;24.20;61.40;;;;;;4460128;32;20082;-72
2022/08/21 10:17:06;;;;;;;7.70;1.73;;;24.20;61.50;;;;;;4460210;32;20167;-71
2022/08/21 10:19:50;;;;;;;8.45;2.10;;;24.20;61.50;;;;;;4460449;32;20070;-72
2022/08/21 10:22:53;;;;;;;9.43;2.30;;;24.20;61.50;;;;;;4460243;32;20090;-72
2022/08/21 10:26:01;;;;;;;4.65;1.70;;;24.20;61.50;;;;;;4460150;32;20085;-72
2022/08/21 10:28:39;;;;;;;6.35;1.55;;;24.20;61.50;;;;;;4396856;32;20091;-72
2022/08/21 10:31:13;;;;;;;5.97;1.77;;;24.20;61.60;;;;;;4396891;32;20075;-72
2022/08/21 10:33:53;;;;;;;6.75;1.70;;;24.20;61.60;;;;;;4438751;32;20077;-72
2022/08/21 10:36:26;;;;;;;6.30;1.92;;;24.20;61.70;;;;;;4462551;32;20082;-72
2022/08/21 10:38:57;;;;;;;5.35;1.83;;;24.20;61.80;;;;;;4462776;32;20207;-73
2022/08/21 10:41:30;;;;;;;4.78;1.83;;;24.20;61.80;;;;;;4462973;32;20121;-73
2022/08/21 10:44:13;;;;;;;5.05;1.38;;;24.20;61.80;;;;;;4448695;32;20486;-73
2022/08/21 10:47:15;;;;;;;6.38;1.58;;;24.10;61.80;;;;;;4462546;32;20066;-73
2022/08/21 10:49:55;;;;;;;6.68;1.70;;;24.10;62.80;;;;;;4462819;32;20171;-73
2022/08/21 10:52:46;;;;;;;6.43;2.00;;;24.10;62.00;;;;;;4462784;32;20085;-73
2022/08/21 10:55:19;;;;;;;3.70;1.65;;;24.10;62.00;;;;;;4448578;32;20167;-72
2022/08/21 10:58:14;;;;;;;4.70;1.70;;;24.10;62.00;;;;;;4462179;32;20080;-72
2022/08/21 11:00:47;;;;;;;4.07;1.63;;;24.00;62.00;;;;;;4462702;32;20097;-73
2022/08/21 11:03:16;;;;;;;6.03;1.80;;;24.10;62.00;;;;;;4462399;32;20581;-73
2022/08/21 11:05:54;;;;;;;4.38;1.85;;;24.00;62.00;;;;;;4462360;32;20078;-73
2022/08/21 11:08:33;;;;;;;4.32;1.70;;;24.00;62.00;;;;;;4462213;32;20550;-73
2022/08/21 11:11:04;;;;;;;4.80;1.67;;;24.00;62.00;;;;;;4462403;32;20232;-73
2022/08/21 11:13:51;;;;;;;4.60;1.52;;;24.00;62.00;;;;;;4462323;32;20109;-73
2022/08/21 11:16:37;;;;;;;4.00;1.60;;;24.00;62.00;;;;;;4448309;32;20216;-73
2022/08/21 11:19:18;;;;;;;4.88;1.50;;;24.00;62.80;;;;;;4462208;32;20074;-73
2022/08/21 11:21:47;;;;;;;3.83;1.70;;;24.00;62.00;;;;;;4448219;32;20085;-73
2022/08/21 11:24:33;;;;;;;4.65;1.70;;;24.00;62.00;;;;;;4462332;32;20092;-73
2022/08/21 11:27:14;;;;;;;5.53;1.70;;;24.00;62.10;;;;;;4462320;32;20117;-73
2022/08/21 11:29:43;;;;;;;4.97;1.60;;;24.00;62.20;;;;;;4447756;32;20101;-73
2022/08/21 11:32:39;;;;;;;5.03;1.67;;;24.00;62.20;;;;;;4461975;32;20508;-73
2022/08/21 11:35:56;;;;;;;5.07;1.35;;;24.00;62.20;;;;;;4461977;32;20503;-73
2022/08/21 11:38:34;;;;;;;5.70;1.60;;;24.00;62.10;;;;;;4435670;32;20078;-73
2022/08/21 11:41:27;;;;;;;4.30;1.80;;;24.00;62.20;;;;;;4448211;32;20192;-72
2022/08/21 11:44:14;;;;;;;4.43;1.70;;;24.00;62.10;;;;;;4461701;32;20077;-72
2022/08/21 11:46:59;;;;;;;3.63;1.52;;;24.00;62.10;;;;;;4462229;32;20124;-72
2022/08/21 11:50:12;;;;;;;5.68;1.73;;;24.00;61.90;;;;;;4447887;32;20096;-72
2022/08/21 11:52:47;;;;;;;6.80;1.70;;;24.10;61.70;;;;;;4461849;32;20507;-72
2022/08/21 11:55:21;;;;;;;8.07;1.83;;;24.10;61.30;;;;;;4461456;32;20073;-72
2022/08/21 11:58:01;;;;;;;4.60;1.77;;;24.20;61.00;;;;;;4461836;32;20187;-72
2022/08/21 12:00:34;;;;;;;5.07;1.60;;;24.20;60.70;;;;;;4461938;32;20503;-72
2022/08/21 12:03:27;;;;;;;6.40;1.90;;;24.30;60.20;;;;;;4461609;32;20074;-73
2022/08/21 12:06:08;;;;;;;5.57;2.30;;;24.30;59.80;;;;;;4461313;32;20082;-74
2022/08/21 12:08:44;;;;;;;11.15;1.90;;;24.30;59.80;;;;;;4447583;32;20093;-74
2022/08/21 12:11:24;;;;;;;8.93;1.80;;;24.40;59.60;;;;;;4461311;32;20105;-74
2022/08/21 12:14:05;;;;;;;9.00;1.70;;;24.40;59.20;;;;;;4461409;32;20665;-75
2022/08/21 12:16:32;;;;;;;6.63;1.77;;;24.50;59.00;;;;;;4461432;32;20558;-74
2022/08/21 12:19:04;;;;;;;5.28;1.50;;;24.50;58.90;;;;;;4460967;32;20085;-74
2022/08/21 12:21:31;;;;;;;6.72;1.23;;;24.50;58.60;;;;;;4461275;32;20110;-74
2022/08/21 12:24:00;;;;;;;4.97;1.60;;;24.50;58.60;;;;;;4460922;32;20163;-75
2022/08/21 12:26:27;;;;;;;4.78;1.40;;;24.50;58.60;;;;;;4461316;32;20074;-74
2022/08/21 12:29:16;;;;;;;4.65;1.33;;;24.50;58.30;;;;;;4461362;32;20073;-74
2022/08/21 12:32:09;;;;;;;5.38;1.50;;;24.50;58.00;;;;;;4461448;32;20081;-74
2022/08/21 12:34:41;;;;;;;6.57;1.30;;;24.50;57.70;;;;;;4437235;32;20483;-75
2022/08/21 12:37:27;;;;;;;5.03;1.48;;;24.50;57.80;;;;;;4460791;32;20499;-75
2022/08/21 12:39:55;;;;;;;4.70;1.17;;;24.50;57.40;;;;;;4460847;32;20085;-74
2022/08/21 12:42:28;;;;;;;3.40;1.35;;;24.50;57.40;;;;;;4460994;32;20120;-74
2022/08/21 12:45:00;;;;;;;3.15;1.30;;;24.50;57.20;;;;;;4461071;32;20163;-75
2022/08/21 12:47:50;;;;;;;5.57;1.27;;;24.50;57.10;;;;;;4461196;32;20196;-74
2022/08/21 12:51:08;;;;;;;3.35;1.00;;;24.50;57.00;;;;;;4460440;32;20065;-74
2022/08/21 12:53:44;;;;;;;3.92;1.30;;;24.60;56.50;;;;;;4436542;32;20090;-74
2022/08/21 12:56:12;;;;;;;3.38;0.95;;;24.60;56.60;;;;;;4446832;32;20078;-74
2022/08/21 12:58:44;;;;;;;5.22;1.30;;;24.60;56.50;;;;;;4460536;32;20530;-74
2022/08/21 13:01:29;;;;;;;3.35;1.38;;;24.60;56.30;;;;;;4461084;32;20555;-74
2022/08/21 13:03:59;;;;;;;5.25;1.30;;;24.50;56.00;;;;;;4460697;32;20077;-75
2022/08/21 13:06:28;;;;;;;4.20;1.20;;;24.60;56.10;;;;;;4461072;32;20077;-74
2022/08/21 13:09:06;;;;;;;5.97;1.42;;;24.60;55.90;;;;;;4460410;32;20078;-74